createdAt,value
2023-05-21T00:00:43.291Z,20.58
2023-05-21T00:03:19.676Z,23.92
2023-05-21T00:05:47.943Z,18.65
2023-05-21T00:08:15.494Z,19.63
2023-05-21T00:10:43.003Z,20.02
2023-05-21T00:13:10.803Z,26.10
2023-05-21T00:15:38.582Z,19.20
2023-05-21T00:18:07.445Z,23.40
2023-05-21T00:21:02.343Z,22.42
2023-05-21T00:23:32.638Z,19.80
2023-05-21T00:26:00.232Z,20.17
2023-05-21T00:31:12.520Z,19.25
2023-05-21T00:33:42.726Z,26.27
2023-05-21T00:36:14.395Z,19.45
2023-05-21T00:38:46.076Z,20.20
2023-05-21T00:41:13.846Z,21.73
2023-05-21T00:43:41.357Z,25.30
2023-05-21T00:46:29.721Z,21.00
2023-05-21T00:49:02.708Z,19.55
2023-05-21T00:51:31.189Z,21.05
2023-05-21T00:53:58.485Z,19.45
2023-05-21T00:56:28.460Z,24.30
2023-05-21T00:58:57.293Z,27.55
2023-05-21T01:01:26.110Z,20.17
2023-05-21T01:04:21.321Z,19.80
2023-05-21T01:06:48.825Z,21.48
2023-05-21T01:09:16.196Z,24.90
2023-05-21T01:11:49.229Z,26.05
2023-05-21T01:14:17.508Z,20.67
2023-05-21T01:19:22.096Z,23.45
2023-05-21T01:21:53.261Z,20.90
2023-05-21T01:24:20.401Z,20.60
2023-05-21T01:26:50.491Z,23.77
2023-05-21T01:29:24.648Z,22.27
2023-05-21T01:31:57.872Z,20.45
2023-05-21T01:34:29.738Z,21.65
2023-05-21T01:37:01.655Z,22.98
2023-05-21T01:39:31.437Z,26.38
2023-05-21T01:42:16.201Z,21.60
2023-05-21T01:44:43.765Z,24.00
2023-05-21T01:47:11.396Z,22.92
2023-05-21T01:50:13.449Z,24.63
2023-05-21T01:52:53.143Z,21.85
2023-05-21T01:55:25.123Z,21.02
2023-05-21T01:57:56.033Z,21.38
2023-05-21T02:00:24.887Z,22.67
2023-05-21T02:02:52.751Z,25.10
2023-05-21T02:05:20.559Z,23.60
2023-05-21T02:07:49.839Z,23.45
2023-05-21T02:10:17.702Z,23.15
2023-05-21T02:12:45.089Z,23.02
2023-05-21T02:15:14.682Z,22.10
2023-05-21T02:17:42.646Z,22.45
2023-05-21T02:20:17.801Z,24.73
2023-05-21T02:22:45.990Z,23.73
2023-05-21T02:25:14.172Z,26.60
2023-05-21T02:27:42.687Z,22.83
2023-05-21T02:30:11.104Z,23.20
2023-05-21T02:32:48.915Z,24.80
2023-05-21T02:35:19.517Z,21.75
2023-05-21T02:37:48.735Z,26.60
2023-05-21T02:40:18.831Z,25.85
2023-05-21T02:42:46.071Z,23.10
2023-05-21T02:45:18.580Z,22.98
2023-05-21T02:47:47.248Z,21.35
2023-05-21T02:50:17.961Z,23.85
2023-05-21T02:55:19.762Z,19.48
2023-05-21T02:57:51.233Z,20.02
2023-05-21T03:03:09.693Z,19.98
2023-05-21T03:05:37.493Z,20.27
2023-05-21T03:08:04.825Z,19.67
2023-05-21T03:10:32.916Z,23.30
2023-05-21T03:13:00.294Z,23.30
2023-05-21T03:15:33.438Z,25.38
2023-05-21T03:18:02.091Z,19.05
2023-05-21T03:20:29.778Z,20.20
2023-05-21T03:23:00.579Z,17.85
2023-05-21T03:25:27.900Z,18.27
2023-05-21T03:28:00.784Z,21.38
2023-05-21T03:30:46.849Z,16.67
2023-05-21T03:33:39.594Z,16.60
2023-05-21T03:36:19.008Z,18.15
2023-05-21T03:38:46.493Z,19.27
2023-05-21T03:41:13.823Z,23.55
2023-05-21T03:43:46.654Z,15.75
2023-05-21T03:46:13.901Z,17.08
2023-05-21T03:48:58.392Z,21.80
2023-05-21T03:51:27.807Z,15.27
2023-05-21T03:53:57.636Z,21.00
2023-05-21T03:56:26.141Z,17.77
2023-05-21T03:58:53.667Z,20.38
2023-05-21T04:01:21.646Z,16.50
2023-05-21T04:03:51.612Z,16.02
2023-05-21T04:06:19.980Z,20.35
2023-05-21T04:08:48.018Z,17.52
2023-05-21T04:11:15.977Z,17.70
2023-05-21T04:13:43.202Z,17.65
2023-05-21T04:16:10.842Z,14.30
2023-05-21T04:18:45.659Z,14.65
2023-05-21T04:21:16.340Z,17.25
2023-05-21T04:23:49.205Z,22.83
2023-05-21T04:26:34.147Z,21.10
2023-05-21T04:29:05.133Z,27.83
2023-05-21T04:34:04.347Z,20.60
2023-05-21T04:36:41.439Z,19.25
2023-05-21T04:39:08.881Z,14.95
2023-05-21T04:41:36.885Z,12.90
2023-05-21T04:44:04.978Z,13.50
2023-05-21T04:46:36.556Z,13.02
2023-05-21T04:49:03.927Z,13.40
2023-05-21T04:51:31.779Z,13.18
2023-05-21T04:54:01.166Z,13.60
2023-05-21T04:56:28.312Z,11.57
2023-05-21T04:58:55.818Z,14.55
2023-05-21T05:01:23.667Z,18.00
2023-05-21T05:03:51.347Z,16.55
2023-05-21T05:06:19.045Z,13.18
2023-05-21T05:09:03.224Z,15.93
2023-05-21T05:11:45.610Z,17.50
2023-05-21T05:14:12.624Z,11.20
2023-05-21T05:16:40.019Z,15.13
2023-05-21T05:19:08.105Z,12.43
2023-05-21T05:21:38.719Z,10.48
2023-05-21T05:24:09.246Z,11.70
2023-05-21T05:26:49.653Z,11.05
2023-05-21T05:29:20.196Z,11.63
2023-05-21T05:31:48.369Z,14.23
2023-05-21T05:34:16.007Z,11.60
2023-05-21T05:36:42.942Z,10.77
2023-05-21T05:39:10.976Z,10.27
2023-05-21T05:41:39.323Z,15.18
2023-05-21T05:44:10.734Z,13.68
2023-05-21T05:46:44.304Z,10.30
2023-05-21T05:49:15.557Z,13.65
2023-05-21T05:54:21.636Z,11.43
2023-05-21T05:59:18.787Z,9.27
2023-05-21T06:02:17.766Z,13.70
2023-05-21T06:04:45.550Z,9.88
2023-05-21T06:07:14.160Z,10.13
2023-05-21T06:09:41.615Z,10.60
2023-05-21T06:12:09.552Z,13.43
2023-05-21T06:15:06.158Z,13.18
2023-05-21T06:17:36.967Z,12.73
2023-05-21T06:20:05.270Z,12.98
2023-05-21T06:22:33.176Z,12.52
2023-05-21T06:25:15.143Z,12.40
2023-05-21T06:27:45.458Z,16.75
2023-05-21T06:30:39.696Z,11.90
2023-05-21T06:33:10.022Z,10.10
2023-05-21T06:35:40.428Z,9.90
2023-05-21T06:38:17.561Z,9.05
2023-05-21T06:40:47.465Z,9.35
2023-05-21T06:43:40.195Z,15.23
2023-05-21T06:46:26.410Z,15.02
2023-05-21T06:49:07.301Z,14.48
2023-05-21T06:51:38.144Z,9.25
2023-05-21T06:54:06.034Z,16.70
2023-05-21T06:56:35.566Z,15.05
2023-05-21T06:59:02.459Z,11.00
2023-05-21T07:01:30.743Z,15.65
2023-05-21T07:03:58.308Z,20.77
2023-05-21T07:06:30.066Z,9.82
2023-05-21T07:09:00.780Z,11.13
2023-05-21T07:11:28.979Z,13.13
2023-05-21T07:14:02.343Z,12.57
2023-05-21T07:16:31.225Z,13.55
2023-05-21T07:19:00.179Z,13.15
2023-05-21T07:21:27.710Z,16.42
2023-05-21T07:23:55.253Z,13.85
2023-05-21T07:26:24.183Z,16.35
2023-05-21T07:28:57.609Z,13.25
2023-05-21T07:31:25.526Z,13.63
2023-05-21T07:33:53.121Z,15.32
2023-05-21T07:36:24.502Z,14.10
2023-05-21T07:38:51.756Z,15.10
2023-05-21T07:41:19.094Z,18.52
2023-05-21T07:43:47.984Z,17.48
2023-05-21T07:46:15.461Z,15.77
2023-05-21T07:48:43.688Z,14.45
2023-05-21T07:51:11.625Z,15.65
2023-05-21T07:53:38.585Z,12.65
2023-05-21T07:56:09.705Z,15.05
2023-05-21T07:58:40.714Z,12.35
2023-05-21T08:01:12.037Z,19.45
2023-05-21T08:03:39.867Z,17.52
2023-05-21T08:06:10.321Z,12.57
2023-05-21T08:08:37.662Z,14.68
2023-05-21T08:11:08.174Z,16.35
2023-05-21T08:14:08.856Z,15.07
2023-05-21T08:17:45.967Z,15.30
2023-05-21T08:20:44.122Z,13.02
2023-05-21T08:24:24.997Z,10.27
2023-05-21T08:34:16.349Z,9.98
2023-05-21T08:40:31.544Z,10.20
2023-05-21T08:45:59.452Z,10.50
2023-05-21T08:48:32.027Z,6.93
2023-05-21T08:51:01.646Z,11.32
2023-05-21T08:53:36.245Z,14.45
2023-05-21T08:56:05.781Z,14.07
2023-05-21T08:58:46.955Z,18.98
2023-05-21T09:01:19.977Z,5.85
2023-05-21T09:03:52.655Z,8.82
2023-05-21T09:06:20.764Z,12.48
2023-05-21T09:08:53.477Z,10.13
2023-05-21T09:11:29.720Z,7.07
2023-05-21T09:14:01.353Z,10.00
2023-05-21T09:16:45.189Z,7.20
2023-05-21T09:19:17.278Z,9.82
2023-05-21T09:21:48.706Z,11.20
2023-05-21T09:24:24.942Z,7.60
2023-05-21T09:26:56.619Z,11.70
2023-05-21T09:29:26.235Z,11.52
2023-05-21T09:31:55.375Z,8.85
2023-05-21T09:34:27.747Z,8.18
2023-05-21T09:36:58.359Z,8.40
2023-05-21T09:39:30.643Z,8.38
2023-05-21T09:42:02.801Z,9.10
2023-05-21T09:44:32.402Z,7.20
2023-05-21T09:47:02.198Z,11.68
2023-05-21T09:49:31.697Z,9.32
2023-05-21T09:52:00.913Z,7.15
2023-05-21T09:54:32.486Z,9.07
2023-05-21T09:57:03.941Z,10.00
2023-05-21T09:59:41.921Z,18.00
2023-05-21T10:02:23.440Z,9.07
2023-05-21T10:04:54.361Z,13.80
2023-05-21T10:07:26.653Z,5.57
2023-05-21T10:10:00.041Z,5.20
2023-05-21T10:12:32.887Z,6.85
2023-05-21T10:15:01.860Z,17.17
2023-05-21T10:17:30.698Z,14.20
2023-05-21T10:25:13.584Z,6.35
2023-05-21T10:27:41.884Z,6.22
2023-05-21T10:30:09.395Z,7.90
2023-05-21T10:32:36.709Z,7.90
2023-05-21T10:35:04.524Z,22.95
2023-05-21T10:37:32.825Z,15.27
2023-05-21T10:40:02.476Z,7.93
2023-05-21T10:42:35.632Z,8.27
2023-05-21T10:45:11.968Z,7.85
2023-05-21T10:47:58.696Z,12.18
2023-05-21T10:50:39.411Z,8.38
2023-05-21T10:53:10.504Z,15.90
2023-05-21T10:55:59.182Z,8.18
2023-05-21T10:58:50.099Z,9.00
2023-05-21T11:01:20.002Z,9.70
2023-05-21T11:03:49.508Z,11.02
2023-05-21T11:06:24.944Z,10.98
2023-05-21T11:11:42.854Z,15.52
2023-05-21T11:14:30.588Z,14.18
2023-05-21T11:17:01.222Z,17.40
2023-05-21T11:19:43.399Z,11.05
2023-05-21T11:25:16.746Z,12.15
2023-05-21T11:27:44.521Z,14.80
2023-05-21T11:30:17.650Z,11.63
2023-05-21T11:33:05.555Z,12.48
2023-05-21T11:35:36.280Z,25.05
2023-05-21T11:38:03.520Z,25.55
2023-05-21T11:40:31.419Z,13.85
2023-05-21T11:42:59.522Z,12.48
2023-05-21T11:48:17.969Z,13.48
2023-05-21T11:53:31.506Z,15.57
2023-05-21T11:56:12.737Z,20.45
2023-05-21T11:58:50.877Z,18.25
2023-05-21T12:09:56.482Z,16.42
2023-05-21T12:15:14.015Z,13.35
2023-05-21T12:53:40.682Z,16.33
2023-05-21T12:56:15.286Z,16.52
2023-05-21T12:58:43.295Z,14.23
2023-05-21T13:01:13.843Z,15.57
2023-05-21T13:03:45.964Z,12.98
2023-05-21T13:06:13.483Z,13.07
2023-05-21T13:08:41.099Z,15.98
2023-05-21T13:11:09.352Z,18.63
2023-05-21T13:13:36.793Z,17.45
2023-05-21T13:16:04.082Z,14.18
2023-05-21T13:18:31.127Z,15.48
2023-05-21T13:21:00.241Z,18.38
2023-05-21T13:23:28.324Z,13.73
2023-05-21T13:25:56.018Z,17.27
2023-05-21T13:28:24.211Z,16.48
2023-05-21T13:30:56.632Z,15.45
2023-05-21T13:33:32.723Z,17.13
2023-05-21T13:43:53.733Z,17.50
2023-05-21T14:13:11.265Z,14.80
2023-05-21T14:15:45.960Z,29.10
2023-05-21T14:18:14.961Z,20.02
2023-05-21T14:20:43.870Z,14.35
2023-05-21T14:23:14.247Z,15.07
2023-05-21T14:25:41.951Z,20.17
2023-05-21T14:28:09.293Z,25.48
2023-05-21T14:30:36.364Z,19.10
2023-05-21T14:33:03.751Z,19.02
2023-05-21T14:35:31.605Z,19.00
2023-05-21T14:38:00.485Z,27.27
2023-05-21T14:40:27.797Z,17.80
2023-05-21T14:42:58.300Z,13.52
2023-05-21T14:45:34.538Z,16.70
2023-05-21T14:55:01.490Z,15.88
2023-05-21T14:57:28.942Z,21.92
2023-05-21T15:00:04.372Z,14.30
2023-05-21T15:02:40.570Z,13.85
2023-05-21T15:05:09.744Z,13.75
2023-05-21T15:07:37.003Z,19.08
2023-05-21T15:10:04.505Z,16.80
2023-05-21T15:12:33.274Z,14.20
2023-05-21T15:15:00.898Z,15.07
2023-05-21T15:17:29.964Z,16.35
2023-05-21T15:25:18.407Z,16.63
2023-05-21T15:27:49.346Z,15.35
2023-05-21T15:30:18.012Z,15.55
2023-05-21T15:32:45.709Z,14.90
2023-05-21T15:35:15.037Z,17.48
2023-05-21T15:37:43.803Z,16.48
2023-05-21T15:40:11.669Z,19.70
2023-05-21T15:42:39.493Z,14.82
2023-05-21T15:45:07.187Z,17.65
2023-05-21T15:47:34.498Z,17.88
2023-05-21T15:50:02.238Z,19.80
2023-05-21T15:52:29.518Z,15.32
2023-05-21T15:54:58.062Z,14.48
2023-05-21T15:57:25.584Z,13.90
2023-05-21T15:59:53.003Z,15.70
2023-05-21T16:02:21.369Z,15.25
2023-05-21T16:04:51.943Z,14.13
2023-05-21T16:07:19.817Z,14.27
2023-05-21T16:09:47.558Z,14.00
2023-05-21T16:12:16.805Z,19.20
2023-05-21T16:14:45.081Z,16.73
2023-05-21T16:17:12.225Z,23.30
2023-05-21T16:19:45.931Z,20.13
2023-05-21T16:22:13.125Z,15.82
2023-05-21T16:27:22.856Z,20.67
2023-05-21T16:29:51.751Z,13.93
2023-05-21T16:32:23.634Z,20.23
2023-05-21T16:34:50.890Z,18.58
2023-05-21T16:37:21.232Z,22.30
2023-05-21T16:39:49.173Z,21.75
2023-05-21T16:42:26.121Z,16.02
2023-05-21T16:44:54.691Z,14.85
2023-05-21T16:47:27.231Z,18.35
2023-05-21T16:49:56.974Z,16.15
2023-05-21T17:00:35.780Z,17.58
2023-05-21T17:03:03.518Z,15.23
2023-05-21T17:13:09.760Z,20.58
2023-05-21T17:15:45.424Z,18.60
2023-05-21T17:21:04.125Z,21.77
2023-05-21T17:23:31.767Z,30.50
2023-05-21T17:26:00.359Z,27.58
2023-05-21T17:28:27.672Z,31.70
2023-05-21T17:30:56.713Z,22.88
2023-05-21T17:38:58.351Z,17.08
2023-05-21T17:41:26.591Z,15.55
2023-05-21T17:43:54.810Z,20.33
2023-05-21T17:46:22.118Z,19.40
2023-05-21T17:51:49.528Z,31.20
